Time;durP1;ratioP1;P1;durP2;ratioP2;P2;SDS_P1;SDS_P2;PMS_P1;PMS_P2;Temp;Humidity;BMP_temperature;BMP_pressure;BME280_temperature;BME280_humidity;BME280_pressure;Samples;Min_cycle;Max_cycle;Signal;HPM_P1;HPM_P2
2023/09/26 00:00:20;;;;;;;;;;;12.20;82.70;;;;;;5038289;28;19928;-72
2023/09/26 00:02:53;;;;;;;;;;;12.30;82.60;;;;;;5037701;28;19939;-71
2023/09/26 00:05:27;;;;;;;;;;;12.20;82.70;;;;;;5036711;28;20030;-75
2023/09/26 00:08:03;;;;;;;;;;;12.20;82.60;;;;;;5036609;28;19932;-74
2023/09/26 00:10:36;;;;;;;;;;;12.20;82.40;;;;;;5041068;28;19933;-76
2023/09/26 00:13:10;;;;;;;;;;;12.20;82.40;;;;;;5044671;28;20012;-74
2023/09/26 00:15:44;;;;;;;;;;;12.20;82.30;;;;;;5042143;28;19929;-76
2023/09/26 00:18:17;;;;;;;;;;;12.20;82.10;;;;;;5046279;28;20020;-73
2023/09/26 00:20:50;;;;;;;;;;;12.20;82.00;;;;;;5035128;28;19933;-73
2023/09/26 00:23:23;;;;;;;;;;;12.10;82.10;;;;;;5037084;28;19933;-75
2023/09/26 00:25:56;;;;;;;;;;;12.10;82.10;;;;;;5037553;28;19929;-75
2023/09/26 00:28:30;;;;;;;;;;;12.10;82.20;;;;;;5037237;28;20038;-75
2023/09/26 00:31:04;;;;;;;;;;;12.00;82.20;;;;;;5037364;28;20422;-75
2023/09/26 00:33:38;;;;;;;;;;;12.00;82.20;;;;;;5034646;28;20023;-74
2023/09/26 00:36:08;;;;;;;;;;;12.00;82.40;;;;;;5037429;28;19928;-74
2023/09/26 00:38:42;;;;;;;;;;;12.00;82.30;;;;;;5035715;28;19971;-75
2023/09/26 00:41:15;;;;;;;;;;;12.00;82.30;;;;;;5036236;28;19948;-75
2023/09/26 00:43:50;;;;;;;;;;;11.90;82.50;;;;;;5042401;28;19932;-72
2023/09/26 00:46:24;;;;;;;;;;;11.90;82.60;;;;;;5042660;28;19925;-74
2023/09/26 00:48:57;;;;;;;;;;;12.00;82.40;;;;;;5039841;28;19933;-74
2023/09/26 00:51:31;;;;;;;;;;;11.90;82.60;;;;;;5041492;28;19968;-75
2023/09/26 00:54:05;;;;;;;;;;;11.90;82.60;;;;;;5040125;28;19939;-74
2023/09/26 00:56:39;;;;;;;;;;;11.90;82.40;;;;;;5038604;28;19929;-74
2023/09/26 00:59:13;;;;;;;;;;;11.90;82.40;;;;;;5039095;28;19933;-73
2023/09/26 01:01:49;;;;;;;;;;;11.80;82.50;;;;;;5040738;28;20358;-73
2023/09/26 01:04:22;;;;;;;;;;;11.80;82.60;;;;;;5048357;28;19932;-73
2023/09/26 01:06:55;;;;;;;;;;;11.70;82.50;;;;;;5041573;28;20311;-74
2023/09/26 01:09:28;;;;;;;;;;;11.80;82.40;;;;;;5039492;28;20299;-74
2023/09/26 01:12:01;;;;;;;;;;;11.70;82.30;;;;;;5039952;28;19929;-73
2023/09/26 01:14:35;;;;;;;;;;;11.70;82.30;;;;;;5037814;28;19929;-67
2023/09/26 01:17:09;;;;;;;;;;;11.70;82.30;;;;;;5040661;28;19925;-66
2023/09/26 01:19:42;;;;;;;;;;;11.70;82.40;;;;;;5038993;28;20300;-66
2023/09/26 01:22:16;;;;;;;;;;;11.70;82.60;;;;;;5042041;28;19933;-65
2023/09/26 01:24:52;;;;;;;;;;;11.60;82.60;;;;;;5040784;28;20506;-66
2023/09/26 01:27:26;;;;;;;;;;;11.60;82.70;;;;;;5039383;28;19929;-67
2023/09/26 01:29:54;;;;;;;;;;;11.60;82.70;;;;;;5037196;28;19978;-67
2023/09/26 01:32:28;;;;;;;;;;;11.60;82.80;;;;;;5041354;28;20008;-67
2023/09/26 01:35:01;;;;;;;;;;;11.60;82.80;;;;;;5040867;28;19925;-64
2023/09/26 01:37:34;;;;;;;;;;;11.60;82.80;;;;;;5038348;28;19933;-66
2023/09/26 01:40:11;;;;;;;;;;;11.50;82.80;;;;;;5041964;28;20296;-65
2023/09/26 01:42:44;;;;;;;;;;;11.50;82.70;;;;;;5036470;28;20349;-65
2023/09/26 01:45:17;;;;;;;;;;;11.40;82.70;;;;;;5039211;28;19925;-65
2023/09/26 01:47:51;;;;;;;;;;;11.50;82.60;;;;;;5039308;28;19924;-66
2023/09/26 01:50:24;;;;;;;;;;;11.50;82.50;;;;;;5039090;28;19933;-66
2023/09/26 01:52:51;;;;;;;;;;;11.40;82.40;;;;;;5040166;28;19940;-66
2023/09/26 01:55:25;;;;;;;;;;;11.30;82.40;;;;;;5038291;28;19936;-66
2023/09/26 01:57:59;;;;;;;;;;;11.30;82.40;;;;;;5038576;28;19948;-64
2023/09/26 02:00:32;;;;;;;;;;;11.40;82.10;;;;;;5046328;28;19924;-65
2023/09/26 02:02:59;;;;;;;;;;;11.40;82.10;;;;;;5035503;28;19947;-66
2023/09/26 02:05:32;;;;;;;;;;;11.30;82.10;;;;;;5040332;28;19925;-66
2023/09/26 02:08:05;;;;;;;;;;;11.30;82.00;;;;;;5039126;28;19928;-65
2023/09/26 02:10:39;;;;;;;;;;;11.30;82.10;;;;;;5039364;28;20379;-65
2023/09/26 02:13:13;;;;;;;;;;;11.30;82.10;;;;;;5040873;28;19935;-65
2023/09/26 02:15:46;;;;;;;;;;;11.20;82.40;;;;;;5037467;28;20007;-65
2023/09/26 02:18:19;;;;;;;;;;;11.20;82.30;;;;;;5037963;28;19924;-66
2023/09/26 02:20:52;;;;;;;;;;;11.30;82.30;;;;;;5037150;28;20377;-67
2023/09/26 02:23:19;;;;;;;;;;;11.20;82.40;;;;;;5039033;28;19925;-65
2023/09/26 02:25:53;;;;;;;;;;;11.20;82.40;;;;;;5041343;28;20305;-67
2023/09/26 02:28:27;;;;;;;;;;;11.20;82.30;;;;;;5038511;28;20346;-65
2023/09/26 02:31:00;;;;;;;;;;;11.20;82.30;;;;;;5039529;28;19975;-65
2023/09/26 02:33:33;;;;;;;;;;;11.10;82.60;;;;;;5035773;28;19935;-65
2023/09/26 02:36:06;;;;;;;;;;;11.10;82.60;;;;;;5037596;28;20010;-65
2023/09/26 02:38:39;;;;;;;;;;;11.10;82.70;;;;;;5038859;28;19929;-65
2023/09/26 02:41:13;;;;;;;;;;;11.10;82.70;;;;;;5038111;28;19933;-66
2023/09/26 02:43:47;;;;;;;;;;;11.00;82.70;;;;;;5036962;28;19965;-66
2023/09/26 02:46:21;;;;;;;;;;;11.00;82.60;;;;;;5038031;28;20345;-65
2023/09/26 02:48:55;;;;;;;;;;;11.00;82.40;;;;;;5038064;28;19933;-65
2023/09/26 02:51:28;;;;;;;;;;;11.00;82.60;;;;;;5041668;28;19932;-66
2023/09/26 02:54:02;;;;;;;;;;;11.00;82.50;;;;;;5040709;28;19979;-66
2023/09/26 02:56:36;;;;;;;;;;;11.00;82.40;;;;;;5040934;28;20015;-66
2023/09/26 02:59:03;;;;;;;;;;;10.90;82.60;;;;;;5045234;28;19929;-65
2023/09/26 03:01:36;;;;;;;;;;;10.90;82.70;;;;;;5039343;28;20023;-65
2023/09/26 03:04:09;;;;;;;;;;;11.00;82.40;;;;;;5036944;28;19933;-66
2023/09/26 03:06:42;;;;;;;;;;;11.00;82.50;;;;;;5040645;28;19991;-65
2023/09/26 03:09:15;;;;;;;;;;;11.00;82.40;;;;;;5039601;28;20020;-66
2023/09/26 03:11:50;;;;;;;;;;;11.00;82.50;;;;;;5038341;28;19925;-65
2023/09/26 03:14:25;;;;;;;;;;;11.00;82.50;;;;;;5036978;28;20020;-65
2023/09/26 03:16:58;;;;;;;;;;;11.00;82.50;;;;;;5035543;28;19933;-66
2023/09/26 03:19:31;;;;;;;;;;;11.00;82.50;;;;;;5044865;28;20329;-65
2023/09/26 03:22:04;;;;;;;;;;;11.00;82.60;;;;;;5038703;28;20015;-65
2023/09/26 03:24:43;;;;;;;;;;;11.00;82.50;;;;;;5038595;28;19925;-65
2023/09/26 03:27:18;;;;;;;;;;;10.90;82.60;;;;;;5037917;28;20376;-65
2023/09/26 03:29:53;;;;;;;;;;;10.80;82.80;;;;;;5046217;28;19932;-66
2023/09/26 03:32:26;;;;;;;;;;;10.80;82.90;;;;;;5038537;28;19936;-65
2023/09/26 03:34:59;;;;;;;;;;;10.80;82.70;;;;;;5037472;28;19933;-70
2023/09/26 03:37:26;;;;;;;;;;;10.70;82.80;;;;;;5036670;28;19930;-70
2023/09/26 03:39:59;;;;;;;;;;;10.70;82.80;;;;;;5038539;28;19925;-70
2023/09/26 03:42:33;;;;;;;;;;;10.70;82.70;;;;;;5038767;28;19932;-70
2023/09/26 03:45:07;;;;;;;;;;;10.70;82.60;;;;;;5039424;28;20375;-70
2023/09/26 03:47:41;;;;;;;;;;;10.70;82.50;;;;;;5037806;28;19932;-70
2023/09/26 03:50:14;;;;;;;;;;;10.70;82.50;;;;;;5036922;28;19939;-70
2023/09/26 03:52:47;;;;;;;;;;;10.70;82.60;;;;;;5039349;28;20397;-70
2023/09/26 03:55:20;;;;;;;;;;;10.70;82.90;;;;;;5037804;28;19979;-70
2023/09/26 03:57:55;;;;;;;;;;;10.60;83.00;;;;;;5037961;28;20047;-71
2023/09/26 04:00:26;;;;;;;;;;;10.60;83.00;;;;;;5038342;28;19929;-71
2023/09/26 04:03:01;;;;;;;;;;;10.70;82.90;;;;;;5034791;28;19932;-69
2023/09/26 04:05:34;;;;;;;;;;;10.70;82.60;;;;;;5039639;28;20019;-70
2023/09/26 04:08:08;;;;;;;;;;;10.70;82.60;;;;;;5037889;28;20032;-69
2023/09/26 04:10:41;;;;;;;;;;;10.60;82.60;;;;;;5038189;28;19925;-70
2023/09/26 04:13:15;;;;;;;;;;;10.60;82.80;;;;;;5038368;28;19933;-70
2023/09/26 04:15:49;;;;;;;;;;;10.60;82.90;;;;;;5036035;28;19953;-70
2023/09/26 04:18:23;;;;;;;;;;;10.60;82.70;;;;;;5037948;28;20406;-69
2023/09/26 04:20:56;;;;;;;;;;;10.60;82.80;;;;;;5034733;28;19974;-70
2023/09/26 04:23:29;;;;;;;;;;;10.60;82.90;;;;;;5037235;28;19931;-70
2023/09/26 04:26:09;;;;;;;;;;;10.60;82.90;;;;;;5034240;28;20067;-69
2023/09/26 04:28:44;;;;;;;;;;;10.60;82.90;;;;;;5035897;28;20402;-70
2023/09/26 04:31:24;;;;;;;;;;;10.60;82.90;;;;;;5037196;28;19933;-69
2023/09/26 04:33:57;;;;;;;;;;;10.60;83.00;;;;;;5037994;28;19925;-70
2023/09/26 04:36:31;;;;;;;;;;;10.60;83.10;;;;;;5035958;28;20369;-70
2023/09/26 04:39:04;;;;;;;;;;;10.50;83.30;;;;;;5037126;28;20371;-70
2023/09/26 04:41:37;;;;;;;;;;;10.60;83.50;;;;;;5039301;28;19935;-69
2023/09/26 04:44:11;;;;;;;;;;;10.60;83.60;;;;;;5034606;28;19928;-65
2023/09/26 04:46:45;;;;;;;;;;;10.60;83.70;;;;;;5035591;28;19929;-65
2023/09/26 04:49:18;;;;;;;;;;;10.60;83.70;;;;;;5037393;28;19932;-65
2023/09/26 04:51:51;;;;;;;;;;;10.60;83.60;;;;;;5039300;28;19929;-66
2023/09/26 04:54:25;;;;;;;;;;;10.50;83.60;;;;;;5038495;28;19929;-65
2023/09/26 04:56:58;;;;;;;;;;;10.60;83.40;;;;;;5038109;28;19936;-65
2023/09/26 04:59:32;;;;;;;;;;;10.50;83.30;;;;;;5039511;28;20033;-66
2023/09/26 05:02:06;;;;;;;;;;;10.50;83.40;;;;;;5035780;28;19991;-65
2023/09/26 05:04:40;;;;;;;;;;;10.40;83.30;;;;;;5038113;28;19931;-65
2023/09/26 05:07:13;;;;;;;;;;;10.40;83.30;;;;;;5036252;28;19929;-65
2023/09/26 05:09:46;;;;;;;;;;;10.40;83.50;;;;;;5032801;28;19933;-65
2023/09/26 05:12:19;;;;;;;;;;;10.30;83.60;;;;;;5038408;28;19937;-65
2023/09/26 05:14:53;;;;;;;;;;;10.40;83.60;;;;;;5037075;28;19928;-68
2023/09/26 05:17:27;;;;;;;;;;;10.30;83.70;;;;;;5036426;28;19933;-65
2023/09/26 05:20:00;;;;;;;;;;;10.40;83.60;;;;;;5035524;28;20017;-65
2023/09/26 05:22:33;;;;;;;;;;;10.40;83.30;;;;;;5035464;28;19925;-65
2023/09/26 05:25:07;;;;;;;;;;;10.40;83.40;;;;;;5036418;28;19940;-65
2023/09/26 05:27:34;;;;;;;;;;;10.40;83.40;;;;;;5038306;28;20420;-65
2023/09/26 05:30:11;;;;;;;;;;;10.40;83.40;;;;;;5043747;28;19939;-65
2023/09/26 05:32:44;;;;;;;;;;;10.40;83.20;;;;;;5042282;28;19999;-67
2023/09/26 05:35:17;;;;;;;;;;;10.40;83.30;;;;;;5041759;28;19932;-65
2023/09/26 05:37:51;;;;;;;;;;;10.30;83.40;;;;;;5041247;28;20352;-67
2023/09/26 05:40:24;;;;;;;;;;;10.30;83.30;;;;;;5040375;28;19995;-65
2023/09/26 05:42:57;;;;;;;;;;;10.40;83.40;;;;;;5041331;28;20075;-66
2023/09/26 05:45:31;;;;;;;;;;;10.40;83.50;;;;;;5041232;28;19925;-67
2023/09/26 05:48:05;;;;;;;;;;;10.40;83.40;;;;;;5039985;28;19971;-65
2023/09/26 05:50:38;;;;;;;;;;;10.40;83.40;;;;;;5036984;28;19925;-65
2023/09/26 05:53:12;;;;;;;;;;;10.40;83.50;;;;;;5038064;28;20024;-66
2023/09/26 05:55:46;;;;;;;;;;;10.40;83.70;;;;;;5042036;28;20012;-69
2023/09/26 05:58:26;;;;;;;;;;;10.40;83.60;;;;;;5039990;28;19979;-69
2023/09/26 06:01:08;;;;;;;;;;;10.40;83.80;;;;;;5041244;28;19928;-69
2023/09/26 06:03:41;;;;;;;;;;;10.40;83.60;;;;;;5040369;28;20295;-68
2023/09/26 06:06:14;;;;;;;;;;;10.40;83.70;;;;;;5038482;28;19929;-69
2023/09/26 06:08:47;;;;;;;;;;;10.40;83.60;;;;;;5041539;28;19932;-68
2023/09/26 06:11:20;;;;;;;;;;;10.40;83.70;;;;;;5040103;28;20519;-68
2023/09/26 06:13:53;;;;;;;;;;;10.40;83.60;;;;;;5039136;28;19936;-69
2023/09/26 06:16:28;;;;;;;;;;;10.50;83.70;;;;;;5040252;28;19932;-68
2023/09/26 06:19:02;;;;;;;;;;;10.60;83.90;;;;;;5037953;28;20012;-69
2023/09/26 06:21:35;;;;;;;;;;;10.60;83.90;;;;;;5039130;28;19978;-69
2023/09/26 06:24:09;;;;;;;;;;;10.60;84.00;;;;;;5040071;28;19928;-69
2023/09/26 06:26:42;;;;;;;;;;;10.60;84.10;;;;;;5041335;28;19931;-69
2023/09/26 06:29:16;;;;;;;;;;;10.60;84.20;;;;;;5039964;28;19936;-69
2023/09/26 06:31:50;;;;;;;;;;;10.70;84.20;;;;;;5036865;28;20015;-69
2023/09/26 06:34:31;;;;;;;;;;;10.70;84.40;;;;;;5039302;28;19925;-69
2023/09/26 06:37:05;;;;;;;;;;;10.70;84.30;;;;;;5037367;28;19928;-69
2023/09/26 06:39:38;;;;;;;;;;;10.70;84.50;;;;;;5038479;28;19933;-69
2023/09/26 06:42:11;;;;;;;;;;;10.80;84.50;;;;;;5039277;28;19940;-68
2023/09/26 06:44:44;;;;;;;;;;;10.80;84.50;;;;;;5039936;28;19967;-68
2023/09/26 06:47:18;;;;;;;;;;;10.90;84.80;;;;;;5040739;28;20384;-69
2023/09/26 06:49:52;;;;;;;;;;;10.90;84.70;;;;;;5038522;28;19978;-70
2023/09/26 06:52:25;;;;;;;;;;;10.90;85.00;;;;;;5039784;28;19939;-69
2023/09/26 06:54:58;;;;;;;;;;;10.90;85.00;;;;;;5038465;28;19964;-68
2023/09/26 06:57:31;;;;;;;;;;;10.90;85.10;;;;;;5040690;28;20440;-69
2023/09/26 07:00:06;;;;;;;;;;;10.90;85.20;;;;;;5038872;28;19933;-69
2023/09/26 07:02:40;;;;;;;;;;;10.90;85.40;;;;;;5035162;28;19924;-68
2023/09/26 07:05:14;;;;;;;;;;;10.90;85.30;;;;;;5039842;28;19968;-73
2023/09/26 07:07:47;;;;;;;;;;;11.00;85.50;;;;;;5038511;28;19933;-72
2023/09/26 07:10:22;;;;;;;;;;;11.10;85.00;;;;;;5038175;28;20031;-73
2023/09/26 07:12:55;;;;;;;;;;;11.10;85.10;;;;;;5037074;28;19939;-71
2023/09/26 07:15:31;;;;;;;;;;;11.10;85.30;;;;;;5035585;28;19925;-72
2023/09/26 07:18:03;;;;;;;;;;;11.10;85.40;;;;;;5038876;28;20389;-72
2023/09/26 07:20:38;;;;;;;;;;;11.10;85.60;;;;;;5035870;28;19933;-72
2023/09/26 07:23:11;;;;;;;;;;;11.20;85.50;;;;;;5037859;28;20368;-71
2023/09/26 07:25:44;;;;;;;;;;;11.20;85.40;;;;;;5039241;28;20024;-72
2023/09/26 07:28:17;;;;;;;;;;;11.20;85.40;;;;;;5037411;28;20277;-73
2023/09/26 07:30:53;;;;;;;;;;;11.40;86.50;;;;;;5036951;28;19929;-72
2023/09/26 07:33:28;;;;;;;;;;;11.60;86.90;;;;;;5038391;28;19929;-72
2023/09/26 07:36:02;;;;;;;;;;;11.70;86.60;;;;;;5037416;28;19936;-72
2023/09/26 07:38:35;;;;;;;;;;;11.90;86.80;;;;;;5038567;28;19983;-71
2023/09/26 07:41:09;;;;;;;;;;;12.00;86.70;;;;;;5038617;28;20024;-72
2023/09/26 07:43:42;;;;;;;;;;;12.20;87.60;;;;;;5036729;28;19931;-72
2023/09/26 07:46:15;;;;;;;;;;;12.30;87.40;;;;;;5037983;28;20015;-71
2023/09/26 07:48:49;;;;;;;;;;;12.50;87.80;;;;;;5035936;28;20399;-71
2023/09/26 07:51:23;;;;;;;;;;;12.60;87.70;;;;;;5037277;28;19928;-71
2023/09/26 07:53:56;;;;;;;;;;;12.80;87.60;;;;;;5036370;28;19929;-72
2023/09/26 07:56:29;;;;;;;;;;;12.90;87.50;;;;;;5037679;28;19929;-72
2023/09/26 07:59:02;;;;;;;;;;;13.10;87.30;;;;;;5037413;28;19933;-73
2023/09/26 08:01:35;;;;;;;;;;;13.20;87.10;;;;;;5037664;28;19939;-70
2023/09/26 08:04:03;;;;;;;;;;;13.30;87.80;;;;;;5037221;28;19929;-72
2023/09/26 08:06:36;;;;;;;;;;;13.40;87.30;;;;;;5044192;28;19932;-72
2023/09/26 08:09:10;;;;;;;;;;;13.60;87.70;;;;;;5044095;28;19932;-71
2023/09/26 08:11:43;;;;;;;;;;;13.70;87.20;;;;;;5040307;28;19925;-72
2023/09/26 08:14:16;;;;;;;;;;;13.80;86.80;;;;;;5036519;28;19933;-69
2023/09/26 08:16:49;;;;;;;;;;;14.00;86.10;;;;;;5038109;28;20012;-70
2023/09/26 08:19:23;;;;;;;;;;;14.20;86.00;;;;;;5035821;28;20376;-69
2023/09/26 08:21:57;;;;;;;;;;;14.30;86.30;;;;;;5038891;28;19955;-70
2023/09/26 08:24:30;;;;;;;;;;;14.40;85.80;;;;;;5035512;28;19936;-69
2023/09/26 08:27:03;;;;;;;;;;;14.50;85.70;;;;;;5037858;28;19975;-69
2023/09/26 08:29:36;;;;;;;;;;;14.60;85.90;;;;;;5038713;28;20307;-69
2023/09/26 08:32:10;;;;;;;;;;;14.80;85.60;;;;;;5037377;28;20419;-69
2023/09/26 08:34:44;;;;;;;;;;;15.00;85.90;;;;;;5035201;28;20369;-69
2023/09/26 08:37:18;;;;;;;;;;;15.10;85.30;;;;;;5037040;28;20026;-69
2023/09/26 08:39:51;;;;;;;;;;;15.20;85.10;;;;;;5037557;28;19935;-69
2023/09/26 08:42:26;;;;;;;;;;;15.40;84.20;;;;;;5036696;28;19929;-69
2023/09/26 08:45:01;;;;;;;;;;;15.60;84.10;;;;;;5035972;28;19972;-67
2023/09/26 08:47:37;;;;;;;;;;;15.70;83.70;;;;;;5037228;28;19960;-69
2023/09/26 08:50:18;;;;;;;;;;;15.90;83.70;;;;;;5038135;28;19932;-68
2023/09/26 08:52:52;;;;;;;;;;;16.00;83.10;;;;;;5035601;28;19948;-69
2023/09/26 08:55:25;;;;;;;;;;;16.20;82.80;;;;;;5029224;28;20381;-69
2023/09/26 08:57:58;;;;;;;;;;;16.30;82.60;;;;;;5035553;28;20016;-69
2023/09/26 09:00:31;;;;;;;;;;;16.40;82.20;;;;;;5039384;28;19924;-69
2023/09/26 09:03:11;;;;;;;;;;;16.60;82.00;;;;;;5039354;28;20493;-69
2023/09/26 09:05:45;;;;;;;;;;;16.70;81.60;;;;;;5039806;28;19932;-69
2023/09/26 09:08:19;;;;;;;;;;;16.80;81.30;;;;;;5041428;28;19928;-70
2023/09/26 09:10:53;;;;;;;;;;;17.00;80.90;;;;;;5041102;28;19925;-69
2023/09/26 09:13:28;;;;;;;;;;;17.10;80.60;;;;;;5039956;28;19998;-69
2023/09/26 09:16:09;;;;;;;;;;;17.30;80.30;;;;;;5037773;28;20028;-69
2023/09/26 09:18:43;;;;;;;;;;;17.40;80.10;;;;;;5040766;28;19932;-70
2023/09/26 09:21:25;;;;;;;;;;;17.60;79.70;;;;;;5042201;28;19925;-69
2023/09/26 09:23:59;;;;;;;;;;;17.70;79.20;;;;;;5035872;28;19933;-69
2023/09/26 09:26:34;;;;;;;;;;;17.80;79.00;;;;;;5042172;28;19948;-68
2023/09/26 09:29:16;;;;;;;;;;;17.90;78.70;;;;;;5040745;28;19925;-68
2023/09/26 09:31:50;;;;;;;;;;;18.10;78.70;;;;;;5039195;28;19929;-68
2023/09/26 09:34:25;;;;;;;;;;;18.10;77.90;;;;;;5040294;28;19925;-68
2023/09/26 09:36:59;;;;;;;;;;;18.20;78.40;;;;;;5040786;28;19936;-68
2023/09/26 09:39:32;;;;;;;;;;;18.30;78.30;;;;;;5039773;28;19925;-68
2023/09/26 09:42:06;;;;;;;;;;;18.40;78.30;;;;;;5044678;28;19952;-68
2023/09/26 09:44:39;;;;;;;;;;;18.60;77.80;;;;;;5038211;28;19928;-68
2023/09/26 09:47:08;;;;;;;;;;;18.70;77.40;;;;;;5040157;28;20005;-68
2023/09/26 09:49:42;;;;;;;;;;;18.80;77.10;;;;;;5040219;28;19925;-68
2023/09/26 09:52:17;;;;;;;;;;;18.90;76.90;;;;;;5041097;28;20056;-67
2023/09/26 09:54:53;;;;;;;;;;;19.00;76.80;;;;;;5040533;28;19948;-68
2023/09/26 09:57:29;;;;;;;;;;;19.10;76.40;;;;;;5037037;28;19925;-68
2023/09/26 10:00:05;;;;;;;;;;;19.20;76.50;;;;;;5036211;28;20383;-68
2023/09/26 10:02:38;;;;;;;;;;;19.20;75.40;;;;;;5037615;28;19933;-68
2023/09/26 10:05:13;;;;;;;;;;;19.30;74.90;;;;;;5040566;28;19925;-68
2023/09/26 10:07:49;;;;;;;;;;;19.40;73.70;;;;;;5038814;28;19929;-67
2023/09/26 10:10:24;;;;;;;;;;;19.50;74.00;;;;;;5039525;28;19925;-67
2023/09/26 10:12:57;;;;;;;;;;;19.60;74.40;;;;;;5039169;28;20023;-68
2023/09/26 10:15:31;;;;;;;;;;;19.70;73.30;;;;;;5037907;28;19957;-67
2023/09/26 10:18:05;;;;;;;;;;;19.80;73.10;;;;;;5037395;28;19947;-68
2023/09/26 10:20:38;;;;;;;;;;;19.90;74.10;;;;;;5041051;28;19925;-68
2023/09/26 10:23:12;;;;;;;;;;;20.00;73.40;;;;;;5037860;28;19933;-69
2023/09/26 10:25:46;;;;;;;;;;;20.10;72.70;;;;;;5040850;28;19925;-67
2023/09/26 10:28:21;;;;;;;;;;;20.20;71.60;;;;;;5039514;28;19925;-68
2023/09/26 10:30:55;;;;;;;;;;;20.20;72.00;;;;;;5038324;28;19929;-67
2023/09/26 10:33:28;;;;;;;;;;;20.30;71.60;;;;;;5040515;28;19932;-70
2023/09/26 10:36:04;;;;;;;;;;;20.30;71.80;;;;;;5038063;28;19925;-70
2023/09/26 10:38:33;;;;;;;;;;;20.40;72.00;;;;;;5039379;28;19932;-70
2023/09/26 10:41:08;;;;;;;;;;;20.50;71.20;;;;;;5038945;28;20443;-70
2023/09/26 10:43:42;;;;;;;;;;;20.60;71.40;;;;;;5040899;28;19940;-70
2023/09/26 10:46:15;;;;;;;;;;;20.60;70.80;;;;;;5040810;28;20400;-70
2023/09/26 10:48:49;;;;;;;;;;;20.60;71.30;;;;;;5037812;28;19925;-70
2023/09/26 10:51:22;;;;;;;;;;;20.70;70.90;;;;;;5040291;28;20400;-70
2023/09/26 10:53:56;;;;;;;;;;;20.80;71.00;;;;;;5039503;28;19964;-70
2023/09/26 10:56:30;;;;;;;;;;;20.90;70.80;;;;;;5037910;28;19936;-70
2023/09/26 10:59:03;;;;;;;;;;;20.90;70.60;;;;;;5037829;28;20496;-71
2023/09/26 11:01:37;;;;;;;;;;;20.90;70.00;;;;;;5038537;28;20434;-71
2023/09/26 11:04:10;;;;;;;;;;;20.90;69.80;;;;;;5039701;28;20444;-71
2023/09/26 11:06:43;;;;;;;;;;;21.00;69.40;;;;;;5038972;28;20384;-71
2023/09/26 11:09:18;;;;;;;;;;;21.10;69.20;;;;;;5038537;28;19998;-71
2023/09/26 11:11:52;;;;;;;;;;;21.10;69.50;;;;;;5038062;28;20402;-70
2023/09/26 11:14:26;;;;;;;;;;;21.20;69.50;;;;;;5039111;28;19929;-71
2023/09/26 11:16:59;;;;;;;;;;;21.20;69.60;;;;;;5036120;28;19992;-70
2023/09/26 11:19:34;;;;;;;;;;;21.30;69.80;;;;;;5040114;28;19935;-71
2023/09/26 11:22:07;;;;;;;;;;;21.40;69.30;;;;;;5036474;28;19929;-70
2023/09/26 11:24:41;;;;;;;;;;;21.50;69.70;;;;;;5038333;28;19957;-71
2023/09/26 11:27:14;;;;;;;;;;;21.60;69.60;;;;;;5040865;28;19929;-70
2023/09/26 11:29:47;;;;;;;;;;;21.60;69.40;;;;;;5037202;28;19925;-71
2023/09/26 11:32:20;;;;;;;;;;;21.50;68.90;;;;;;5038991;28;20368;-70
2023/09/26 11:34:53;;;;;;;;;;;21.50;69.60;;;;;;5036950;28;20282;-70
2023/09/26 11:37:31;;;;;;;;;;;21.50;69.40;;;;;;5039000;28;19925;-72
2023/09/26 11:40:09;;;;;;;;;;;21.50;69.20;;;;;;5037381;28;20303;-70
2023/09/26 11:42:43;;;;;;;;;;;21.50;69.60;;;;;;5033119;28;20277;-72
2023/09/26 11:45:20;;;;;;;;;;;21.40;69.60;;;;;;5037770;28;19928;-66
2023/09/26 11:47:53;;;;;;;;;;;21.40;69.60;;;;;;5036853;28;20346;-68
2023/09/26 11:50:20;;;;;;;;;;;21.30;69.00;;;;;;5034172;28;19929;-67
2023/09/26 11:52:56;;;;;;;;;;;21.20;68.90;;;;;;5038153;28;19937;-67
2023/09/26 11:55:31;;;;;;;;;;;21.20;69.30;;;;;;5037818;28;19929;-67
2023/09/26 11:58:04;;;;;;;;;;;21.20;68.80;;;;;;5037874;28;20291;-66
2023/09/26 12:00:38;;;;;;;;;;;21.10;69.00;;;;;;5035679;28;20358;-65
2023/09/26 12:03:11;;;;;;;;;;;21.20;69.60;;;;;;5036359;28;20376;-66
2023/09/26 12:05:44;;;;;;;;;;;21.20;69.60;;;;;;5038417;28;20011;-66
2023/09/26 12:08:17;;;;;;;;;;;21.20;69.70;;;;;;5038529;28;21205;-66
2023/09/26 12:10:51;;;;;;;;;;;21.30;69.60;;;;;;5038529;28;19935;-66
2023/09/26 12:13:25;;;;;;;;;;;21.30;69.70;;;;;;5037991;28;20019;-66
2023/09/26 12:15:59;;;;;;;;;;;21.30;69.40;;;;;;5035856;28;20071;-66
2023/09/26 12:18:32;;;;;;;;;;;21.30;70.10;;;;;;5033886;28;19982;-66
2023/09/26 12:21:05;;;;;;;;;;;21.30;69.30;;;;;;5038073;28;19925;-66
2023/09/26 12:23:38;;;;;;;;;;;21.20;69.60;;;;;;5039626;28;19959;-67
2023/09/26 12:26:13;;;;;;;;;;;21.30;70.30;;;;;;5038940;28;19925;-66
2023/09/26 12:28:46;;;;;;;;;;;21.20;70.00;;;;;;5035225;28;20025;-65
2023/09/26 12:31:19;;;;;;;;;;;21.20;70.90;;;;;;5019721;28;19929;-66
2023/09/26 12:33:52;;;;;;;;;;;21.20;70.00;;;;;;5028873;28;20012;-68
2023/09/26 12:36:20;;;;;;;;;;;21.20;70.50;;;;;;5019285;28;19952;-67
2023/09/26 12:38:53;;;;;;;;;;;21.20;69.80;;;;;;5018286;28;20299;-67
2023/09/26 12:41:29;;;;;;;;;;;21.20;69.80;;;;;;5022755;28;20437;-66
2023/09/26 12:44:02;;;;;;;;;;;21.10;69.50;;;;;;5022142;28;19938;-65
2023/09/26 12:46:35;;;;;;;;;;;21.10;69.70;;;;;;5029966;28;19929;-66
2023/09/26 12:49:09;;;;;;;;;;;21.10;70.20;;;;;;5033178;28;19929;-66
2023/09/26 12:51:42;;;;;;;;;;;21.10;69.90;;;;;;5042960;28;20018;-66
2023/09/26 12:54:15;;;;;;;;;;;21.10;70.50;;;;;;5041184;28;20386;-70
2023/09/26 12:56:43;;;;;;;;;;;21.10;70.60;;;;;;5042772;28;20193;-71
2023/09/26 12:59:16;;;;;;;;;;;21.10;70.80;;;;;;5039617;28;20494;-70
2023/09/26 13:01:49;;;;;;;;;;;21.00;70.30;;;;;;5040379;28;20041;-72
2023/09/26 13:04:23;;;;;;;;;;;21.00;71.10;;;;;;5039580;28;19929;-70
2023/09/26 13:06:57;;;;;;;;;;;21.10;71.40;;;;;;5040060;28;19983;-71
2023/09/26 13:09:30;;;;;;;;;;;21.10;70.00;;;;;;5041544;28;19925;-70
2023/09/26 13:12:05;;;;;;;;;;;21.00;70.70;;;;;;5039470;28;19932;-70
2023/09/26 13:14:31;;;;;;;;;;;21.00;71.40;;;;;;5041410;28;19929;-71
2023/09/26 13:17:05;;;;;;;;;;;20.90;71.50;;;;;;5040296;28;20445;-71
2023/09/26 13:19:39;;;;;;;;;;;20.90;71.30;;;;;;5042760;28;20371;-70
2023/09/26 13:22:13;;;;;;;;;;;20.90;71.90;;;;;;5044409;28;19932;-70
2023/09/26 13:24:46;;;;;;;;;;;20.80;72.20;;;;;;5039024;28;19925;-71
2023/09/26 13:27:21;;;;;;;;;;;20.80;71.80;;;;;;5040052;28;20376;-71
2023/09/26 13:29:54;;;;;;;;;;;20.70;71.10;;;;;;5038027;28;19994;-71
2023/09/26 13:32:27;;;;;;;;;;;20.80;71.90;;;;;;5040992;28;19944;-71
2023/09/26 13:34:54;;;;;;;;;;;20.70;72.30;;;;;;5037189;28;20341;-70
2023/09/26 13:37:27;;;;;;;;;;;20.70;71.20;;;;;;5039552;28;19965;-70
2023/09/26 13:40:00;;;;;;;;;;;20.60;71.60;;;;;;5037705;28;19931;-70
2023/09/26 13:42:35;;;;;;;;;;;20.70;72.00;;;;;;5041035;28;20014;-72
2023/09/26 13:45:15;;;;;;;;;;;20.70;71.80;;;;;;5040834;28;20022;-71
2023/09/26 13:47:48;;;;;;;;;;;20.70;72.00;;;;;;5038005;28;20365;-69
2023/09/26 13:50:21;;;;;;;;;;;20.70;71.80;;;;;;5036884;28;19944;-70
2023/09/26 13:52:54;;;;;;;;;;;20.60;71.90;;;;;;5039626;28;19940;-71
2023/09/26 13:55:27;;;;;;;;;;;20.60;71.80;;;;;;5051501;28;19931;-71
2023/09/26 13:58:02;;;;;;;;;;;20.60;72.00;;;;;;5045225;28;19925;-70
2023/09/26 14:00:37;;;;;;;;;;;20.60;72.20;;;;;;5042353;28;20307;-70
2023/09/26 14:03:10;;;;;;;;;;;20.60;72.10;;;;;;5038620;28;19924;-71
2023/09/26 14:05:43;;;;;;;;;;;20.70;72.40;;;;;;5040443;28;19931;-64
2023/09/26 14:08:16;;;;;;;;;;;20.70;72.60;;;;;;5036929;28;20395;-65
2023/09/26 14:10:49;;;;;;;;;;;20.70;72.40;;;;;;5037105;28;20308;-65
2023/09/26 14:13:24;;;;;;;;;;;20.70;72.60;;;;;;5038886;28;19925;-65
2023/09/26 14:15:57;;;;;;;;;;;20.60;72.60;;;;;;5039202;28;19975;-66
2023/09/26 14:18:31;;;;;;;;;;;20.60;72.50;;;;;;5038688;28;19932;-66
2023/09/26 14:21:09;;;;;;;;;;;20.60;72.90;;;;;;5039660;28;19948;-66
2023/09/26 14:23:42;;;;;;;;;;;20.60;72.70;;;;;;5038643;28;19936;-66
2023/09/26 14:26:15;;;;;;;;;;;20.60;72.80;;;;;;5039498;28;20409;-65
2023/09/26 14:28:51;;;;;;;;;;;20.60;72.90;;;;;;5039746;28;20015;-65
2023/09/26 14:31:24;;;;;;;;;;;20.60;73.10;;;;;;5035928;28;19971;-65
2023/09/26 14:33:57;;;;;;;;;;;20.60;73.00;;;;;;5038820;28;19954;-65
2023/09/26 14:36:30;;;;;;;;;;;20.60;73.00;;;;;;5039821;28;19925;-66
2023/09/26 14:39:03;;;;;;;;;;;20.60;73.20;;;;;;5039104;28;19932;-66
2023/09/26 14:41:36;;;;;;;;;;;20.60;73.30;;;;;;5037667;28;19932;-66
2023/09/26 14:44:11;;;;;;;;;;;20.50;73.40;;;;;;5036718;28;19940;-66
2023/09/26 14:46:43;;;;;;;;;;;20.50;73.50;;;;;;5036963;28;19940;-66
2023/09/26 14:49:16;;;;;;;;;;;20.50;74.00;;;;;;5036533;28;19936;-66
2023/09/26 14:51:56;;;;;;;;;;;20.50;73.90;;;;;;5040433;28;19932;-66